Seabourn Sojourn — C6YA5 — position and weather

sailwx.info

Track history (hours):
 
Tides and Currents Weather Stations Pressure Air Temp Water Temp Dewpoint Dewpoint Depression Visibility Wind Speed Wind Dir Waves Ship Positions

Seabourn Sojourn

Last reported at 2019-Dec-15 10:00 UTC. Time now 2019-Dec-15 11:15 UTC.
Position N 16°42' W 066°18'.

Length 198 m; draft 6.6 m.

Type: Ship. MMSI: 311027100.

Wind from 130 at 25 knots

Barometer 1015.0 mb

Date/timePositionNaut miles runAvg speedWind from/ knotsBaromVisibWave heightAir tempDewpointWater temp
2019-Dec-15 10:00N 16°42' W 066°18'3115.6 130 / 251015.0
2019-Dec-15 08:00N 16°54' W 066°48'1818.2 110 / 301012.0
2019-Dec-15 07:00N 17°00' W 067°06'1312.9 110 / 301012.0
2019-Dec-15 06:00N 17°06' W 067°18'1716.6 110 / 301013.0
2019-Dec-15 05:00N 17°18' W 067°30'1818.2 1013.0
2019-Dec-15 04:00N 17°24' W 067°48'7913.2 1013.0
2019-Dec-14 22:00N 18°12' W 068°54'11 0.9 090 / 161013.0
2019-Dec-14 10:00N 18°12' W 069°06'2311.4 040 / 161013.0
2019-Dec-14 08:00N 18°12' W 069°30'1818.1 040 / 141011.0
2019-Dec-14 07:00N 18°06' W 069°48'0 0.0 030 / 131011.0
2019-Dec-14 06:00N 18°06' W 069°48'1312.9 1012.0
2019-Dec-14 05:00N 18°00' W 070°00'1111.4 1012.0
2019-Dec-14 04:00N 18°00' W 070°12'6 1.9 1012.0
2019-Dec-14 01:00N 18°00' W 070°18'2612.9 030 / 181012.0
2019-Dec-13 23:00N 18°12' W 069°54'13 2.7 010 / 161015.0
2019-Dec-13 18:00N 18°24' W 069°48'0 0.0 100 / 21015.0
2019-Dec-13 13:00N 18°24' W 069°48'21 7.1 360 / 51013.0
2019-Dec-13 10:00N 18°06' W 070°00'3115.5 010 / 311013.0
2019-Dec-13 08:00N 17°54' W 070°30'1312.9 1011.0
2019-Dec-13 07:00N 17°48' W 070°42'2120.9 1011.0
2019-Dec-13 06:00N 17°36' W 071°00'1312.9 1011.0
2019-Dec-13 05:00N 17°30' W 071°12'1312.9 1011.0
2019-Dec-13 04:00N 17°24' W 071°24'1818.2 090 / 351017.0
2019-Dec-13 03:00N 17°18' W 071°42'1312.9 090 / 351017.0
2019-Dec-13 02:00N 17°24' W 071°54'1818.2 070 / 251015.0
2019-Dec-13 01:00N 17°30' W 072°12'1111.4 090 / 331015.0
2019-Dec-13 00:00N 17°30' W 072°24'4213.9 090 / 281015.0
2019-Dec-12 21:00N 17°42' W 073°06'4715.8 150 / 81013.0
2019-Dec-12 18:00N 17°54' W 073°54'2524.8 180 / 51018.0
2019-Dec-12 17:00N 18°12' W 074°12'12714.1 180 / 51018.0
2019-Dec-12 08:00N 20°18' W 074°00'2914.4 040 / 151015.0 26.3 30.2
2019-Dec-12 06:00N 20°36' W 074°24'10715.2 080 / 291016.0
2019-Dec-11 23:00N 21°24' W 076°06'1817.8 080 / 291019.0
2019-Dec-11 22:00N 21°30' W 076°24'2311.6 090 / 241018.0
2019-Dec-11 20:00N 21°36' W 076°48'2120.6
2019-Dec-11 19:00N 21°48' W 077°06'3316.4 100 / 241016.0
2019-Dec-11 17:00N 22°12' W 077°30'8814.7 1018.0
2019-Dec-11 11:00N 22°54' W 078°54'3216.0 120 / 221017.0
2019-Dec-11 09:00N 23°24' W 079°06'1918.8 120 / 251017.0 25.4 29.5
2019-Dec-11 08:00N 23°42' W 079°12'1313.2 120 / 251017.0 25.5 29.6
2019-Dec-11 07:00N 23°54' W 079°18'1918.8 130 / 261018.0 25.9 29.6
2019-Dec-11 06:00N 24°12' W 079°12'2524.9 130 / 261018.0 25.9 29.6
2019-Dec-11 05:00N 24°24' W 079°36'1818.0 1018.0
2019-Dec-11 04:00N 24°42' W 079°36'7114.2 130 / 301020.0
2019-Dec-10 23:00N 25°46' W 080°09'5315.0
2019-Dec-10 23:00N 25°42' W 080°06'6 6.1 130 / 121019.0
2019-Dec-10 21:59N 25°46' W 080°11'0 0.0
2019-Dec-10 20:20N 25°46' W 080°11'0 0.0
2019-Dec-10 18:23N 25°46' W 080°11'6 4.4
2019-Dec-10 17:00N 25°42' W 080°06'610.2 130 / 121020.0
2019-Dec-10 16:23N 25°46' W 080°11'0 0.0
2019-Dec-10 14:29N 25°46' W 080°11'0 0.0
2019-Dec-10 12:56N 25°46' W 080°11'0 0.0
2019-Dec-10 12:29N 25°46' W 080°11'0 0.0
2019-Dec-10 11:30N 25°46' W 080°11'6 6.3
2019-Dec-10 10:30N 25°46' W 080°04'1312.8
2019-Dec-10 09:30N 25°35' W 079°56'815.2
2019-Dec-10 09:00N 25°29' W 079°52'41434.7
2019-Dec-10 09:00N 25°30' W 079°48'3015.2 100 / 151019.0
2019-Dec-10 07:00N 25°00' W 079°42'1313.2 090 / 151019.0
2019-Dec-10 06:00N 24°48' W 079°36'18614.3 090 / 181019.0
2019-Dec-09 17:00N 22°18' W 077°36'2120.5 080 / 181018.0
2019-Dec-09 16:00N 22°06' W 077°18'1616.4 080 / 181019.0 27.9 30.0
2019-Dec-09 15:00N 21°54' W 077°06'2120.6 070 / 181019.0 27.9 30.0
2019-Dec-09 14:00N 21°42' W 076°48'1312.7 080 / 201017.0 27.9 30.0
2019-Dec-09 13:00N 21°36' W 076°36'1817.8 080 / 221016.0 27.3 30.0
2019-Dec-09 12:00N 21°30' W 076°18'1817.8 080 / 171016.0 26.7 30.0
2019-Dec-09 11:00N 21°24' W 076°00'4314.4 080 / 171015.0 26.5 29.9
2019-Dec-09 08:00N 21°06' W 075°18'17515.9 090 / 161016.0
2019-Dec-08 21:00N 20°18' W 072°18'4019.9 050 / 191013.010.8
2019-Dec-08 19:00N 20°12' W 071°36'1817.9 060 / 81014.0
2019-Dec-08 18:00N 20°06' W 071°18'1817.9 060 / 81014.0
2019-Dec-08 17:00N 20°00' W 071°00'9218.4 060 / 81016.0
2019-Dec-08 12:00N 19°42' W 069°24'8516.9 200 / 101015.0
2019-Dec-08 07:00N 19°12' W 068°00'1717.0 070 / 121015.0
2019-Dec-08 06:00N 19°12' W 067°42'1818.0 070 / 121016.0
2019-Dec-08 05:00N 19°06' W 067°24'1818.0 070 / 121016.0
2019-Dec-08 04:00N 19°00' W 067°06'10717.8 050 / 121017.0
2019-Dec-07 22:00N 18°30' W 065°18'919.0 070 / 121014.0 27.6 30.8
2019-Dec-07 21:30N 18°32' W 065°08'65127.0
2019-Dec-07 21:00N 18°30' W 064°00'4897.4 050 / 111013.0 28.3 31.0
2019-Dec-07 20:30N 18°25' W 064°50'8 1.4
2019-Dec-07 15:00N 18°24' W 064°42'0 0.0 090 / 131018.0
2019-Dec-07 13:00N 18°24' W 064°42'0 0.0 090 / 131016.0 29.1 30.9
2019-Dec-07 12:00N 18°24' W 064°42'29 7.3 050 / 141015.0 29.0 30.9
2019-Dec-07 08:00N 18°30' W 064°12'1716.5 060 / 161016.0
2019-Dec-07 07:00N 18°18' W 064°00'4310.4 060 / 161016.0
2019-Dec-07 02:51N 17°53' W 063°23'2111.2
2019-Dec-07 00:59N 17°39' W 063°06'40 3.1
2019-Dec-06 12:00N 17°12' W 062°36'13 6.5 080 / 121015.0
2019-Dec-06 10:00N 17°06' W 062°48'29 7.2 100 / 221014.010.8
2019-Dec-06 06:00N 17°06' W 062°18'1111.5 110 / 151016.0
2019-Dec-06 05:00N 17°06' W 062°06'17 2.2 080 / 151017.0
2019-Dec-05 21:00N 17°06' W 061°48'   120 / 101013.0 30.3 30.6
Track history (hours):
 
Tides and Currents Weather Stations Pressure Air Temp Water Temp Dewpoint Dewpoint Depression Visibility Wind Speed Wind Dir Waves Ship Positions

Seabourn Sojourn

Last reported at 2019-Dec-15 10:00 UTC. Time now 2019-Dec-15 11:15 UTC.
Position N 16°42' W 066°18'.

Length 198 m; draft 6.6 m.

Type: Ship. MMSI: 311027100.

Wind from 130 at 25 knots

Barometer 1015.0 mb

Date/timePositionNaut miles runAvg speedWind from/ knotsBaromVisibWave heightAir tempDewpointWater temp
2019-Dec-15 10:00N 16°42' W 066°18'3115.6 130 / 251015.0
2019-Dec-15 08:00N 16°54' W 066°48'1818.2 110 / 301012.0
2019-Dec-15 07:00N 17°00' W 067°06'1312.9 110 / 301012.0
2019-Dec-15 06:00N 17°06' W 067°18'1716.6 110 / 301013.0
2019-Dec-15 05:00N 17°18' W 067°30'1818.2 1013.0
2019-Dec-15 04:00N 17°24' W 067°48'7913.2 1013.0
2019-Dec-14 22:00N 18°12' W 068°54'11 0.9 090 / 161013.0
2019-Dec-14 10:00N 18°12' W 069°06'2311.4 040 / 161013.0
2019-Dec-14 08:00N 18°12' W 069°30'1818.1 040 / 141011.0
2019-Dec-14 07:00N 18°06' W 069°48'0 0.0 030 / 131011.0
2019-Dec-14 06:00N 18°06' W 069°48'1312.9 1012.0
2019-Dec-14 05:00N 18°00' W 070°00'1111.4 1012.0
2019-Dec-14 04:00N 18°00' W 070°12'6 1.9 1012.0
2019-Dec-14 01:00N 18°00' W 070°18'2612.9 030 / 181012.0
2019-Dec-13 23:00N 18°12' W 069°54'13 2.7 010 / 161015.0
2019-Dec-13 18:00N 18°24' W 069°48'0 0.0 100 / 21015.0
2019-Dec-13 13:00N 18°24' W 069°48'21 7.1 360 / 51013.0
2019-Dec-13 10:00N 18°06' W 070°00'3115.5 010 / 311013.0
2019-Dec-13 08:00N 17°54' W 070°30'1312.9 1011.0
2019-Dec-13 07:00N 17°48' W 070°42'2120.9 1011.0
2019-Dec-13 06:00N 17°36' W 071°00'1312.9 1011.0
2019-Dec-13 05:00N 17°30' W 071°12'1312.9 1011.0
2019-Dec-13 04:00N 17°24' W 071°24'1818.2 090 / 351017.0
2019-Dec-13 03:00N 17°18' W 071°42'1312.9 090 / 351017.0
2019-Dec-13 02:00N 17°24' W 071°54'1818.2 070 / 251015.0
2019-Dec-13 01:00N 17°30' W 072°12'1111.4 090 / 331015.0
2019-Dec-13 00:00N 17°30' W 072°24'4213.9 090 / 281015.0
2019-Dec-12 21:00N 17°42' W 073°06'4715.8 150 / 81013.0
2019-Dec-12 18:00N 17°54' W 073°54'2524.8 180 / 51018.0
2019-Dec-12 17:00N 18°12' W 074°12'12714.1 180 / 51018.0
2019-Dec-12 08:00N 20°18' W 074°00'2914.4 040 / 151015.0 26.3 30.2
2019-Dec-12 06:00N 20°36' W 074°24'10715.2 080 / 291016.0
2019-Dec-11 23:00N 21°24' W 076°06'1817.8 080 / 291019.0
2019-Dec-11 22:00N 21°30' W 076°24'2311.6 090 / 241018.0
2019-Dec-11 20:00N 21°36' W 076°48'2120.6
2019-Dec-11 19:00N 21°48' W 077°06'3316.4 100 / 241016.0
2019-Dec-11 17:00N 22°12' W 077°30'8814.7 1018.0
2019-Dec-11 11:00N 22°54' W 078°54'3216.0 120 / 221017.0
2019-Dec-11 09:00N 23°24' W 079°06'1918.8 120 / 251017.0 25.4 29.5
2019-Dec-11 08:00N 23°42' W 079°12'1313.2 120 / 251017.0 25.5 29.6
2019-Dec-11 07:00N 23°54' W 079°18'1918.8 130 / 261018.0 25.9 29.6
2019-Dec-11 06:00N 24°12' W 079°12'2524.9 130 / 261018.0 25.9 29.6
2019-Dec-11 05:00N 24°24' W 079°36'1818.0 1018.0
2019-Dec-11 04:00N 24°42' W 079°36'7114.2 130 / 301020.0
2019-Dec-10 23:00N 25°46' W 080°09'5315.0
2019-Dec-10 23:00N 25°42' W 080°06'6 6.1 130 / 121019.0
2019-Dec-10 21:59N 25°46' W 080°11'0 0.0
2019-Dec-10 20:20N 25°46' W 080°11'0 0.0
2019-Dec-10 18:23N 25°46' W 080°11'6 4.4
2019-Dec-10 17:00N 25°42' W 080°06'610.2 130 / 121020.0
2019-Dec-10 16:23N 25°46' W 080°11'0 0.0
2019-Dec-10 14:29N 25°46' W 080°11'0 0.0
2019-Dec-10 12:56N 25°46' W 080°11'0 0.0
2019-Dec-10 12:29N 25°46' W 080°11'0 0.0
2019-Dec-10 11:30N 25°46' W 080°11'6 6.3
2019-Dec-10 10:30N 25°46' W 080°04'1312.8
2019-Dec-10 09:30N 25°35' W 079°56'815.2
2019-Dec-10 09:00N 25°29' W 079°52'41434.7
2019-Dec-10 09:00N 25°30' W 079°48'3015.2 100 / 151019.0
2019-Dec-10 07:00N 25°00' W 079°42'1313.2 090 / 151019.0
2019-Dec-10 06:00N 24°48' W 079°36'18614.3 090 / 181019.0
2019-Dec-09 17:00N 22°18' W 077°36'2120.5 080 / 181018.0
2019-Dec-09 16:00N 22°06' W 077°18'1616.4 080 / 181019.0 27.9 30.0
2019-Dec-09 15:00N 21°54' W 077°06'2120.6 070 / 181019.0 27.9 30.0
2019-Dec-09 14:00N 21°42' W 076°48'1312.7 080 / 201017.0 27.9 30.0
2019-Dec-09 13:00N 21°36' W 076°36'1817.8 080 / 221016.0 27.3 30.0
2019-Dec-09 12:00N 21°30' W 076°18'1817.8 080 / 171016.0 26.7 30.0
2019-Dec-09 11:00N 21°24' W 076°00'4314.4 080 / 171015.0 26.5 29.9
2019-Dec-09 08:00N 21°06' W 075°18'17515.9 090 / 161016.0
2019-Dec-08 21:00N 20°18' W 072°18'4019.9 050 / 191013.010.8
2019-Dec-08 19:00N 20°12' W 071°36'1817.9 060 / 81014.0
2019-Dec-08 18:00N 20°06' W 071°18'1817.9 060 / 81014.0
2019-Dec-08 17:00N 20°00' W 071°00'9218.4 060 / 81016.0
2019-Dec-08 12:00N 19°42' W 069°24'8516.9 200 / 101015.0
2019-Dec-08 07:00N 19°12' W 068°00'1717.0 070 / 121015.0
2019-Dec-08 06:00N 19°12' W 067°42'1818.0 070 / 121016.0
2019-Dec-08 05:00N 19°06' W 067°24'1818.0 070 / 121016.0
2019-Dec-08 04:00N 19°00' W 067°06'10717.8 050 / 121017.0
2019-Dec-07 22:00N 18°30' W 065°18'919.0 070 / 121014.0 27.6 30.8
2019-Dec-07 21:30N 18°32' W 065°08'65127.0
2019-Dec-07 21:00N 18°30' W 064°00'4897.4 050 / 111013.0 28.3 31.0
2019-Dec-07 20:30N 18°25' W 064°50'8 1.4
2019-Dec-07 15:00N 18°24' W 064°42'0 0.0 090 / 131018.0
2019-Dec-07 13:00N 18°24' W 064°42'0 0.0 090 / 131016.0 29.1 30.9
2019-Dec-07 12:00N 18°24' W 064°42'29 7.3 050 / 141015.0 29.0 30.9
2019-Dec-07 08:00N 18°30' W 064°12'1716.5 060 / 161016.0
2019-Dec-07 07:00N 18°18' W 064°00'4310.4 060 / 161016.0
2019-Dec-07 02:51N 17°53' W 063°23'2111.2
2019-Dec-07 00:59N 17°39' W 063°06'40 3.1
2019-Dec-06 12:00N 17°12' W 062°36'13 6.5 080 / 121015.0
2019-Dec-06 10:00N 17°06' W 062°48'29 7.2 100 / 221014.010.8
2019-Dec-06 06:00N 17°06' W 062°18'1111.5 110 / 151016.0
2019-Dec-06 05:00N 17°06' W 062°06'17 2.2 080 / 151017.0
2019-Dec-05 21:00N 17°06' W 061°48'   120 / 101013.0 30.3 30.6

Dump ship's entire track history